Time;durP1;ratioP1;P1;durP2;ratioP2;P2;SDS_P1;SDS_P2;PMS_P1;PMS_P2;Temp;Humidity;BMP_temperature;BMP_pressure;BME280_temperature;BME280_humidity;BME280_pressure;Samples;Min_cycle;Max_cycle;Signal;HPM_P1;HPM_P2
2022/03/21 00:02:21;;;;;;;1.97;1.97;;;;;;;;;;5050882;28;20768;-59
2022/03/21 00:04:48;;;;;;;2.28;2.28;;;;;;;;;;5050951;28;20747;-59
2022/03/21 00:07:14;;;;;;;4.00;3.90;;;;;;;;;;5052326;28;20740;-57
2022/03/21 00:09:40;;;;;;;3.77;3.67;;;;;;;;;;5050940;28;20217;-58
2022/03/21 00:12:06;;;;;;;3.00;2.90;;;;;;;;;;5050682;28;20833;-59
2022/03/21 00:14:32;;;;;;;3.90;3.80;;;;;;;;;;5050836;28;20409;-56
2022/03/21 00:16:59;;;;;;;4.03;3.92;;;;;;;;;;5050903;28;20676;-59
2022/03/21 00:19:25;;;;;;;3.13;3.05;;;;;;;;;;5052308;28;20170;-59
2022/03/21 00:21:51;;;;;;;4.20;4.10;;;;;;;;;;5054385;28;20171;-59
2022/03/21 00:24:17;;;;;;;4.05;3.95;;;;;;;;;;5054568;28;20183;-58
2022/03/21 00:26:43;;;;;;;3.67;3.57;;;;;;;;;;5054544;28;20171;-59
2022/03/21 00:29:09;;;;;;;7.40;7.20;;;;;;;;;;5054460;28;20533;-58
2022/03/21 00:31:36;;;;;;;11.53;11.23;;;;;;;;;;5053998;28;20519;-58
2022/03/21 00:34:02;;;;;;;11.95;11.60;;;;;;;;;;5054511;28;20497;-59
2022/03/21 00:36:28;;;;;;;13.10;12.70;;;;;;;;;;5054315;28;20214;-59
2022/03/21 00:38:54;;;;;;;12.45;12.05;;;;;;;;;;5054268;28;20467;-58
2022/03/21 00:41:22;;;;;;;12.65;12.25;;;;;;;;;;5053904;28;20195;-58
2022/03/21 00:43:48;;;;;;;16.20;15.60;;;;;;;;;;5054183;28;20542;-59
2022/03/21 00:46:14;;;;;;;13.27;12.88;;;;;;;;;;5054175;28;20179;-57
2022/03/21 00:48:40;;;;;;;15.27;14.77;;;;;;;;;;5054101;28;20182;-59
2022/03/21 00:51:06;;;;;;;16.63;16.00;;;;;;;;;;5053700;28;20198;-59
2022/03/21 00:53:32;;;;;;;10.73;10.43;;;;;;;;;;5054072;28;20167;-59
2022/03/21 00:55:58;;;;;;;12.63;12.23;;;;;;;;;;5053947;28;20175;-59
2022/03/21 00:58:23;;;;;;;14.07;13.57;;;;;;;;;;5053910;28;20414;-58
2022/03/21 01:00:50;;;;;;;11.20;10.90;;;;;;;;;;5053533;28;20437;-59
2022/03/21 01:03:16;;;;;;;11.70;11.40;;;;;;;;;;5053869;28;20491;-59
2022/03/21 01:05:41;;;;;;;16.67;16.08;;;;;;;;;;5053810;28;20641;-59
2022/03/21 01:08:07;;;;;;;15.70;15.13;;;;;;;;;;5053781;28;20182;-59
2022/03/21 01:10:34;;;;;;;20.52;19.63;;;;;;;;;;5053328;28;20436;-60
2022/03/21 01:13:00;;;;;;;16.92;16.30;;;;;;;;;;5053752;28;20632;-58
2022/03/21 01:15:27;;;;;;;14.45;14.05;;;;;;;;;;5053653;28;20186;-59
2022/03/21 01:17:54;;;;;;;24.98;23.77;;;;;;;;;;5053526;28;20199;-59
2022/03/21 01:20:21;;;;;;;16.80;16.20;;;;;;;;;;5053337;28;20198;-59
2022/03/21 01:22:47;;;;;;;15.43;14.85;;;;;;;;;;5053430;28;20179;-59
2022/03/21 01:25:14;;;;;;;5.35;5.25;;;;;;;;;;5053360;28;20181;-59
2022/03/21 01:27:40;;;;;;;15.20;14.70;;;;;;;;;;5053425;28;20547;-59
2022/03/21 01:30:08;;;;;;;21.52;20.52;;;;;;;;;;5052265;28;20210;-59
2022/03/21 01:32:34;;;;;;;18.17;17.48;;;;;;;;;;5053038;28;20633;-59
2022/03/21 01:35:00;;;;;;;10.25;9.95;;;;;;;;;;5053399;28;20179;-59
2022/03/21 01:37:26;;;;;;;12.35;11.95;;;;;;;;;;5053475;28;20197;-59
2022/03/21 01:39:52;;;;;;;5.17;5.07;;;;;;;;;;5053188;28;20308;-57
2022/03/21 01:42:18;;;;;;;4.50;4.40;;;;;;;;;;5053221;28;20442;-59
2022/03/21 01:44:44;;;;;;;4.60;4.50;;;;;;;;;;5053281;28;20215;-59
2022/03/21 01:47:10;;;;;;;4.80;4.70;;;;;;;;;;5053158;28;20212;-58
2022/03/21 01:49:36;;;;;;;5.00;4.90;;;;;;;;;;5053022;28;20412;-59
2022/03/21 01:52:03;;;;;;;4.20;4.10;;;;;;;;;;5052670;28;20327;-60
2022/03/21 01:57:15;;;;;;;5.70;5.60;;;;;;;;;;5052909;28;20256;-60
2022/03/21 01:59:41;;;;;;;7.18;6.97;;;;;;;;;;5052732;28;20626;-59
2022/03/21 02:02:07;;;;;;;6.00;5.90;;;;;;;;;;5052505;28;20187;-59
2022/03/21 02:04:35;;;;;;;5.17;5.07;;;;;;;;;;5052879;28;20228;-59
2022/03/21 02:07:01;;;;;;;5.97;5.80;;;;;;;;;;5052737;28;20414;-59
2022/03/21 02:09:29;;;;;;;6.80;6.60;;;;;;;;;;5052686;28;20183;-59
2022/03/21 02:11:55;;;;;;;5.88;5.78;;;;;;;;;;5052511;28;20327;-58
2022/03/21 02:14:21;;;;;;;7.20;7.00;;;;;;;;;;5052806;28;20540;-59
2022/03/21 02:16:47;;;;;;;9.98;9.68;;;;;;;;;;5052438;28;20175;-58
2022/03/21 02:19:13;;;;;;;10.60;10.30;;;;;;;;;;5052370;28;20549;-60
2022/03/21 02:21:58;;;;;;;10.40;10.10;;;;;;;;;;5052077;28;20202;-59
2022/03/21 02:24:35;;;;;;;9.85;9.55;;;;;;;;;;5052426;28;20503;-59
2022/03/21 02:27:01;;;;;;;6.57;6.38;;;;;;;;;;5052314;28;20597;-59
2022/03/21 02:29:30;;;;;;;4.55;4.45;;;;;;;;;;5052059;28;20183;-59
2022/03/21 02:31:56;;;;;;;9.40;9.20;;;;;;;;;;5051808;28;20281;-59
2022/03/21 02:34:27;;;;;;;14.13;13.63;;;;;;;;;;5052196;28;20185;-59
2022/03/21 02:36:55;;;;;;;19.90;19.00;;;;;;;;;;5052076;28;20169;-60
2022/03/21 02:39:21;;;;;;;13.95;13.43;;;;;;;;;;5052100;28;20842;-59
2022/03/21 02:41:50;;;;;;;25.17;23.52;;;;;;;;;;5051457;28;20575;-59
2022/03/21 02:44:16;;;;;;;34.33;31.75;;;;;;;;;;5051400;28;20178;-57
2022/03/21 02:46:42;;;;;;;34.90;32.50;;;;;;;;;;5051800;28;20185;-60
2022/03/21 02:49:08;;;;;;;34.90;32.50;;;;;;;;;;5051783;28;20416;-59
2022/03/21 02:51:37;;;;;;;36.75;34.25;;;;;;;;;;5051466;28;20525;-59
2022/03/21 02:54:03;;;;;;;35.20;32.70;;;;;;;;;;5051784;28;20186;-59
2022/03/21 02:56:29;;;;;;;36.92;34.05;;;;;;;;;;5051722;28;20181;-59
2022/03/21 02:58:55;;;;;;;43.97;40.30;;;;;;;;;;5051579;28;20170;-59
2022/03/21 03:01:21;;;;;;;39.97;36.97;;;;;;;;;;5051366;28;20728;-59
2022/03/21 03:03:47;;;;;;;36.88;33.97;;;;;;;;;;5051596;28;20896;-60
2022/03/21 03:06:14;;;;;;;36.95;34.17;;;;;;;;;;5051758;28;20466;-59
2022/03/21 03:08:41;;;;;;;33.92;31.52;;;;;;;;;;5051630;28;20207;-59
2022/03/21 03:11:07;;;;;;;39.35;36.22;;;;;;;;;;5051125;28;20670;-59
2022/03/21 03:13:33;;;;;;;40.20;37.00;;;;;;;;;;5051381;28;20175;-59
2022/03/21 03:15:59;;;;;;;39.63;36.50;;;;;;;;;;5051565;28;20179;-60
2022/03/21 03:18:25;;;;;;;44.13;40.35;;;;;;;;;;5051420;28;20171;-60
2022/03/21 03:20:52;;;;;;;45.90;41.83;;;;;;;;;;5051061;28;20192;-60
2022/03/21 03:23:19;;;;;;;35.50;32.88;;;;;;;;;;5051432;28;20553;-59
2022/03/21 03:25:45;;;;;;;42.10;38.50;;;;;;;;;;5051308;28;20258;-58
2022/03/21 03:28:11;;;;;;;40.72;37.45;;;;;;;;;;5051229;28;20188;-59
2022/03/21 03:33:12;;;;;;;34.60;32.00;;;;;;;;;;5028174;22;20724;-61
2022/03/21 03:35:38;;;;;;;42.47;38.88;;;;;;;;;;5011114;28;20173;-62
2022/03/21 03:38:04;;;;;;;30.33;28.50;;;;;;;;;;5010671;28;20703;-62
2022/03/21 03:40:30;;;;;;;25.00;23.60;;;;;;;;;;5011459;28;20176;-61
2022/03/21 03:42:56;;;;;;;26.73;25.17;;;;;;;;;;5011542;28;20709;-61
2022/03/21 03:45:22;;;;;;;41.50;38.10;;;;;;;;;;5011554;28;20425;-61
2022/03/21 03:47:48;;;;;;;42.30;38.67;;;;;;;;;;5011558;28;20175;-61
2022/03/21 03:50:14;;;;;;;47.53;43.30;;;;;;;;;;4993661;28;20415;-61
2022/03/21 03:52:46;;;;;;;44.20;40.20;;;;;;;;;;5011409;28;20973;-61
2022/03/21 03:55:12;;;;;;;44.33;40.28;;;;;;;;;;5014025;28;20422;-61
2022/03/21 03:57:38;;;;;;;43.75;39.88;;;;;;;;;;5015476;28;20181;-61
2022/03/21 04:00:04;;;;;;;44.88;40.80;;;;;;;;;;5015081;28;20270;-61
2022/03/21 04:03:44;;;;;;;45.42;41.22;;;;;;;;;;5014976;28;20281;-61
2022/03/21 04:05:16;;;;;;;44.63;40.55;;;;;;;;;;4995549;28;20581;-62
2022/03/21 04:07:42;;;;;;;46.70;42.53;;;;;;;;;;4995705;28;20179;-61
2022/03/21 04:10:08;;;;;;;42.77;39.07;;;;;;;;;;4995339;28;20424;-60
2022/03/21 04:12:35;;;;;;;38.45;35.25;;;;;;;;;;4995496;28;20462;-61
2022/03/21 04:15:01;;;;;;;32.55;30.20;;;;;;;;;;5011556;28;20254;-61
2022/03/21 04:17:27;;;;;;;35.10;32.45;;;;;;;;;;5015089;28;20542;-64
2022/03/21 04:19:53;;;;;;;35.47;32.77;;;;;;;;;;5015082;28;20180;-61
2022/03/21 04:22:19;;;;;;;38.43;35.33;;;;;;;;;;5014800;28;20956;-63
2022/03/21 04:24:45;;;;;;;31.60;29.33;;;;;;;;;;5014922;28;20410;-61
2022/03/21 04:27:11;;;;;;;31.47;29.33;;;;;;;;;;4997241;28;20919;-61
2022/03/21 04:29:37;;;;;;;32.65;30.40;;;;;;;;;;5013826;28;20436;-57
2022/03/21 04:32:03;;;;;;;36.07;33.20;;;;;;;;;;5013602;28;20702;-62
2022/03/21 04:34:29;;;;;;;26.88;25.25;;;;;;;;;;5014796;28;20470;-62
2022/03/21 04:36:56;;;;;;;35.80;33.10;;;;;;;;;;5014749;28;20647;-63
2022/03/21 04:39:22;;;;;;;30.52;28.48;;;;;;;;;;5014560;28;20453;-62
2022/03/21 04:41:48;;;;;;;32.00;29.57;;;;;;;;;;5014165;28;20577;-63
2022/03/21 04:44:13;;;;;;;36.20;33.43;;;;;;;;;;5014542;28;20529;-62
2022/03/21 04:46:39;;;;;;;34.30;31.70;;;;;;;;;;5014709;28;20418;-62
2022/03/21 04:49:05;;;;;;;33.43;31.03;;;;;;;;;;5014410;28;20766;-62
2022/03/21 04:51:31;;;;;;;37.83;34.73;;;;;;;;;;5014150;28;20880;-61
2022/03/21 04:53:57;;;;;;;32.13;29.73;;;;;;;;;;5013704;28;20475;-62
2022/03/21 04:56:23;;;;;;;32.47;30.17;;;;;;;;;;5013435;28;20458;-62
2022/03/21 04:58:49;;;;;;;31.53;29.30;;;;;;;;;;5013006;28;20439;-63
2022/03/21 05:01:15;;;;;;;29.40;27.50;;;;;;;;;;5013394;28;20460;-63
2022/03/21 05:03:42;;;;;;;31.73;29.53;;;;;;;;;;5013637;28;20436;-62
2022/03/21 05:06:08;;;;;;;27.83;26.00;;;;;;;;;;5013882;28;20442;-62
2022/03/21 05:08:34;;;;;;;30.35;28.17;;;;;;;;;;5014159;28;20585;-62
2022/03/21 05:11:00;;;;;;;31.43;29.20;;;;;;;;;;5013670;28;20198;-62
2022/03/21 05:13:25;;;;;;;31.15;28.95;;;;;;;;;;5013963;28;20790;-62
2022/03/21 05:15:51;;;;;;;32.67;30.27;;;;;;;;;;5013989;28;20178;-62
2022/03/21 05:18:17;;;;;;;36.00;33.17;;;;;;;;;;5014015;28;20413;-62
2022/03/21 05:20:44;;;;;;;4.63;4.53;;;;;;;;;;5013644;28;20421;-61
2022/03/21 05:31:26;;;;;;;20.60;19.55;;;;;;;;;;5013634;28;20228;-63
2022/03/21 05:36:36;;;;;;;29.15;27.20;;;;;;;;;;5013650;28;20773;-62
2022/03/21 05:39:03;;;;;;;29.70;27.57;;;;;;;;;;5013609;28;20167;-62
2022/03/21 05:41:29;;;;;;;33.83;31.30;;;;;;;;;;5013401;28;20432;-63
2022/03/21 05:43:55;;;;;;;29.93;27.90;;;;;;;;;;5013614;28;20661;-63
2022/03/21 05:46:22;;;;;;;28.23;26.43;;;;;;;;;;5013329;28;20968;-63
2022/03/21 05:48:50;;;;;;;30.27;28.08;;;;;;;;;;5013724;28;20412;-63
2022/03/21 05:51:20;;;;;;;33.63;31.08;;;;;;;;;;5013225;28;20231;-63
2022/03/21 05:53:46;;;;;;;35.05;32.22;;;;;;;;;;4996020;28;20265;-63
2022/03/21 05:56:13;;;;;;;28.80;26.90;;;;;;;;;;5013286;28;20183;-63
2022/03/21 05:58:39;;;;;;;36.83;33.90;;;;;;;;;;5013123;28;20628;-63
2022/03/21 06:01:05;;;;;;;38.00;34.78;;;;;;;;;;5012693;28;20248;-63
2022/03/21 06:03:31;;;;;;;38.20;34.90;;;;;;;;;;5013068;28;20174;-63
2022/03/21 06:05:59;;;;;;;36.05;33.25;;;;;;;;;;5012124;28;20409;-63
2022/03/21 06:08:25;;;;;;;33.58;31.17;;;;;;;;;;5011782;28;20546;-62
2022/03/21 06:11:03;;;;;;;38.08;34.85;;;;;;;;;;5012696;28;20179;-63
2022/03/21 06:13:29;;;;;;;38.08;34.83;;;;;;;;;;5012985;28;20183;-62
2022/03/21 06:15:55;;;;;;;32.95;30.42;;;;;;;;;;5013041;28;20178;-62
2022/03/21 06:18:21;;;;;;;27.20;25.50;;;;;;;;;;5012599;28;20184;-62
2022/03/21 06:20:47;;;;;;;31.85;29.52;;;;;;;;;;5012698;28;20415;-63
2022/03/21 06:23:13;;;;;;;34.30;31.63;;;;;;;;;;5012934;28;20183;-62
2022/03/21 06:25:39;;;;;;;36.07;33.13;;;;;;;;;;5012861;28;20777;-61
2022/03/21 06:28:05;;;;;;;24.03;22.63;;;;;;;;;;5012719;28;20905;-62
2022/03/21 06:30:31;;;;;;;19.83;18.83;;;;;;;;;;5012488;28;20469;-63
2022/03/21 06:32:57;;;;;;;24.48;23.08;;;;;;;;;;5012446;28;20475;-63
2022/03/21 06:35:23;;;;;;;26.83;25.23;;;;;;;;;;5012523;28;20173;-62
2022/03/21 06:37:48;;;;;;;19.63;18.63;;;;;;;;;;5012566;28;20405;-63
2022/03/21 06:40:15;;;;;;;33.33;30.87;;;;;;;;;;5012138;28;20538;-61
2022/03/21 06:42:41;;;;;;;31.58;29.30;;;;;;;;;;5012393;28;20857;-61
2022/03/21 06:45:07;;;;;;;31.77;29.53;;;;;;;;;;5012294;28;20215;-61
2022/03/21 06:47:33;;;;;;;33.35;30.85;;;;;;;;;;5012313;28;20422;-61
2022/03/21 06:49:59;;;;;;;27.45;25.63;;;;;;;;;;5012367;28;20179;-62
2022/03/21 06:52:25;;;;;;;29.00;26.98;;;;;;;;;;5012232;28;20201;-61
2022/03/21 06:54:51;;;;;;;34.33;31.83;;;;;;;;;;5012413;28;20180;-61
2022/03/21 06:57:17;;;;;;;30.50;28.48;;;;;;;;;;5012299;28;20941;-63
2022/03/21 06:59:45;;;;;;;28.02;26.20;;;;;;;;;;5012916;28;20243;-62
2022/03/21 07:02:11;;;;;;;25.75;24.25;;;;;;;;;;5012263;28;20574;-62
2022/03/21 07:04:37;;;;;;;37.80;34.77;;;;;;;;;;5012514;28;20179;-62
2022/03/21 07:07:03;;;;;;;40.57;37.07;;;;;;;;;;5018466;28;20421;-62
2022/03/21 07:09:29;;;;;;;40.92;37.60;;;;;;;;;;5031926;28;20414;-62
2022/03/21 07:11:55;;;;;;;39.83;36.60;;;;;;;;;;5031637;28;20575;-62
2022/03/21 07:14:22;;;;;;;37.27;34.27;;;;;;;;;;5031670;28;20415;-62
2022/03/21 07:16:48;;;;;;;29.67;27.77;;;;;;;;;;5031881;28;20406;-62
2022/03/21 07:19:14;;;;;;;35.20;32.75;;;;;;;;;;5031852;28;20607;-62
2022/03/21 07:21:40;;;;;;;37.55;34.75;;;;;;;;;;5031447;28;20202;-61
2022/03/21 07:24:07;;;;;;;48.93;44.60;;;;;;;;;;5031682;28;20634;-61
2022/03/21 07:26:33;;;;;;;43.80;40.22;;;;;;;;;;5031672;28;21015;-61
2022/03/21 07:28:59;;;;;;;44.20;40.67;;;;;;;;;;5030275;28;20187;-61
2022/03/21 07:31:25;;;;;;;44.47;40.87;;;;;;;;;;5031538;28;20482;-61
2022/03/21 07:33:51;;;;;;;42.70;39.40;;;;;;;;;;5014333;28;20427;-61
2022/03/21 07:36:17;;;;;;;43.90;40.80;;;;;;;;;;5031827;28;20411;-60
2022/03/21 07:38:43;;;;;;;48.40;44.63;;;;;;;;;;5031953;28;20404;-62
2022/03/21 07:41:09;;;;;;;42.33;39.17;;;;;;;;;;5030922;28;20429;-62
2022/03/21 07:43:35;;;;;;;36.13;33.83;;;;;;;;;;5031991;28;20439;-62
2022/03/21 07:48:46;;;;;;;37.85;35.45;;;;;;;;;;5032019;28;20264;-61
2022/03/21 07:51:12;;;;;;;39.67;36.97;;;;;;;;;;5015528;28;20206;-61
2022/03/21 07:53:38;;;;;;;39.50;36.90;;;;;;;;;;4992457;28;20174;-61
2022/03/21 07:56:05;;;;;;;54.58;50.67;;;;;;;;;;4992613;28;20822;-61
2022/03/21 07:58:33;;;;;;;49.30;45.60;;;;;;;;;;4992627;28;20178;-62
2022/03/21 08:01:00;;;;;;;52.20;48.40;;;;;;;;;;4992646;28;20201;-62
2022/03/21 08:03:26;;;;;;;37.10;34.85;;;;;;;;;;4992331;28;20181;-61
2022/03/21 08:05:53;;;;;;;45.45;42.45;;;;;;;;;;4992219;28;20662;-62
2022/03/21 08:08:20;;;;;;;45.30;42.20;;;;;;;;;;4992543;28;20170;-63
2022/03/21 08:10:46;;;;;;;30.33;28.90;;;;;;;;;;4991915;28;20176;-62
2022/03/21 08:13:14;;;;;;;34.42;32.67;;;;;;;;;;4991787;28;20214;-61
2022/03/21 08:15:41;;;;;;;35.67;33.83;;;;;;;;;;4991875;28;20642;-61
2022/03/21 08:18:07;;;;;;;33.15;31.55;;;;;;;;;;4992147;28;20167;-62
2022/03/21 08:20:33;;;;;;;40.60;38.40;;;;;;;;;;4992054;28;20170;-63
2022/03/21 08:23:00;;;;;;;37.90;35.88;;;;;;;;;;4991732;28;20505;-62
2022/03/21 08:25:27;;;;;;;34.45;32.83;;;;;;;;;;4991810;28;20174;-62
2022/03/21 08:27:54;;;;;;;28.70;27.52;;;;;;;;;;4991787;28;20672;-62
2022/03/21 08:30:20;;;;;;;59.22;55.70;;;;;;;;;;4991413;28;20236;-62
2022/03/21 08:32:46;;;;;;;52.10;49.10;;;;;;;;;;4991929;28;20214;-63
2022/03/21 08:35:12;;;;;;;47.03;44.55;;;;;;;;;;4991756;28;20179;-63
2022/03/21 08:37:39;;;;;;;61.63;58.03;;;;;;;;;;4992123;28;20166;-61
2022/03/21 08:40:06;;;;;;;25.25;24.20;;;;;;;;;;4992838;28;20288;-61
2022/03/21 08:42:32;;;;;;;60.83;57.28;;;;;;;;;;4995108;28;20289;-63
2022/03/21 08:44:58;;;;;;;38.67;36.97;;;;;;;;;;4995111;28;20210;-62
2022/03/21 08:47:24;;;;;;;57.97;54.87;;;;;;;;;;4994825;28;20409;-61
2022/03/21 08:49:50;;;;;;;65.57;62.05;;;;;;;;;;4994902;28;20406;-62
2022/03/21 08:52:17;;;;;;;60.77;57.57;;;;;;;;;;4994763;28;20276;-61
2022/03/21 08:54:43;;;;;;;29.47;28.37;;;;;;;;;;4994975;28;20456;-62
2022/03/21 08:57:10;;;;;;;41.90;40.30;;;;;;;;;;4995059;28;21052;-63
2022/03/21 08:59:36;;;;;;;48.77;46.70;;;;;;;;;;4994816;28;20552;-63
2022/03/21 09:02:02;;;;;;;31.80;30.70;;;;;;;;;;4994521;28;20457;-63
2022/03/21 09:04:28;;;;;;;53.87;51.77;;;;;;;;;;4994874;28;20182;-62
2022/03/21 09:06:55;;;;;;;64.53;62.13;;;;;;;;;;4994810;28;20388;-61
2022/03/21 09:09:21;;;;;;;72.90;70.40;;;;;;;;;;4994597;28;20414;-63
2022/03/21 09:11:47;;;;;;;31.40;30.50;;;;;;;;;;4994219;28;20876;-64
2022/03/21 09:14:14;;;;;;;81.13;78.63;;;;;;;;;;4994764;28;20451;-61
2022/03/21 09:16:42;;;;;;;105.60;102.20;;;;;;;;;;4994574;28;20459;-64
2022/03/21 09:19:08;;;;;;;114.40;110.80;;;;;;;;;;4994462;28;20403;-64
2022/03/21 09:21:34;;;;;;;166.53;161.27;;;;;;;;;;4994306;28;20438;-63
2022/03/21 09:24:01;;;;;;;249.43;241.57;;;;;;;;;;4994635;28;20416;-63
2022/03/21 09:26:27;;;;;;;196.37;189.97;;;;;;;;;;4994546;28;20461;-62
2022/03/21 09:28:59;;;;;;;222.20;215.30;;;;;;;;;;4994284;28;20502;-62
2022/03/21 09:31:26;;;;;;;224.83;217.83;;;;;;;;;;4993688;28;20456;-62
2022/03/21 09:33:52;;;;;;;127.47;123.60;;;;;;;;;;5032254;23;20499;-62
2022/03/21 09:36:18;;;;;;;37.43;36.33;;;;;;;;;;5013229;28;20753;-61
2022/03/21 09:38:44;;;;;;;78.30;75.97;;;;;;;;;;5013455;28;20396;-62
2022/03/21 09:41:13;;;;;;;71.77;69.60;;;;;;;;;;5013215;28;20404;-63
2022/03/21 09:43:39;;;;;;;79.37;77.03;;;;;;;;;;5013447;28;20431;-61
2022/03/21 09:46:07;;;;;;;70.20;68.07;;;;;;;;;;5013478;28;20413;-62
2022/03/21 09:48:34;;;;;;;65.07;63.17;;;;;;;;;;5013295;28;20416;-62
2022/03/21 09:51:00;;;;;;;79.60;77.17;;;;;;;;;;5012492;28;20419;-62
2022/03/21 09:53:26;;;;;;;65.53;63.57;;;;;;;;;;5012337;28;20445;-62
2022/03/21 09:55:52;;;;;;;69.47;67.40;;;;;;;;;;5013287;28;20409;-62
2022/03/21 09:58:20;;;;;;;42.90;41.67;;;;;;;;;;5013070;28;20432;-62
2022/03/21 10:00:47;;;;;;;53.47;51.93;;;;;;;;;;5012828;28;20380;-62
2022/03/21 10:03:13;;;;;;;45.70;44.33;;;;;;;;;;5012945;28;20424;-62
2022/03/21 10:05:41;;;;;;;42.53;41.27;;;;;;;;;;5012807;28;20422;-62
2022/03/21 10:08:27;;;;;;;40.83;39.67;;;;;;;;;;5012888;28;20412;-62
2022/03/21 10:10:55;;;;;;;31.37;30.47;;;;;;;;;;5012585;28;20433;-63
2022/03/21 10:13:22;;;;;;;14.60;14.23;;;;;;;;;;5012685;28;20476;-63
2022/03/21 10:15:49;;;;;;;1.70;1.70;;;;;;;;;;5012800;28;20393;-63
2022/03/21 10:18:16;;;;;;;4.13;4.03;;;;;;;;;;5012756;28;20373;-62
2022/03/21 10:20:42;;;;;;;1.33;1.33;;;;;;;;;;5012487;28;20982;-63
2022/03/21 10:23:18;;;;;;;1.17;1.17;;;;;;;;;;5012670;28;20439;-62
2022/03/21 10:25:44;;;;;;;1.50;1.50;;;;;;;;;;5012758;28;20825;-63
2022/03/21 10:28:10;;;;;;;2.00;2.00;;;;;;;;;;5011932;28;20420;-62
2022/03/21 10:30:45;;;;;;;2.30;2.30;;;;;;;;;;5011603;28;20771;-62
2022/03/21 10:33:11;;;;;;;2.60;2.60;;;;;;;;;;5012456;28;20483;-62
2022/03/21 10:35:46;;;;;;;12.87;12.57;;;;;;;;;;5012832;28;20462;-62
2022/03/21 10:38:12;;;;;;;7.73;7.53;;;;;;;;;;5012024;28;20470;-62
2022/03/21 10:40:41;;;;;;;13.03;12.73;;;;;;;;;;5010782;28;20424;-61
2022/03/21 10:43:09;;;;;;;21.27;20.67;;;;;;;;;;5011556;28;20452;-62
2022/03/21 10:45:35;;;;;;;14.90;14.50;;;;;;;;;;5012206;28;20500;-61
2022/03/21 10:48:02;;;;;;;33.60;32.63;;;;;;;;;;5012253;28;20453;-59
2022/03/21 10:50:29;;;;;;;21.03;20.37;;;;;;;;;;5011803;28;20477;-60
2022/03/21 10:53:08;;;;;;;31.63;30.77;;;;;;;;;;5011195;28;20474;-61
2022/03/21 10:55:34;;;;;;;29.73;28.87;;;;;;;;;;5012040;28;20392;-61
2022/03/21 10:58:00;;;;;;;27.30;26.50;;;;;;;;;;5010215;28;20921;-56
2022/03/21 11:00:27;;;;;;;39.73;38.53;;;;;;;;;;5011015;28;20423;-61
2022/03/21 11:02:52;;;;;;;48.17;46.70;;;;;;;;;;5011538;28;20419;-61
2022/03/21 11:05:19;;;;;;;50.43;48.90;;;;;;;;;;5011362;28;20788;-61
2022/03/21 11:07:48;;;;;;;81.70;79.13;;;;;;;;;;5011066;28;20418;-61
2022/03/21 11:10:15;;;;;;;69.93;67.67;;;;;;;;;;5010742;28;20379;-60
2022/03/21 11:12:42;;;;;;;62.70;60.73;;;;;;;;;;5010011;28;20662;-62
2022/03/21 11:15:09;;;;;;;61.67;59.77;;;;;;;;;;5011074;28;20432;-59
2022/03/21 11:17:36;;;;;;;62.57;60.53;;;;;;;;;;5011290;28;20444;-60
2022/03/21 11:20:02;;;;;;;51.23;49.63;;;;;;;;;;5011179;28;20421;-60
2022/03/21 11:22:29;;;;;;;78.97;76.47;;;;;;;;;;5009889;28;20444;-60
2022/03/21 11:25:00;;;;;;;73.83;71.43;;;;;;;;;;5011499;28;20399;-61
2022/03/21 11:27:41;;;;;;;49.30;47.80;;;;;;;;;;5011654;28;20395;-59
2022/03/21 11:30:07;;;;;;;18.97;18.47;;;;;;;;;;5011575;28;20439;-54
2022/03/21 11:32:39;;;;;;;32.40;31.50;;;;;;;;;;5010926;28;20475;-60
2022/03/21 11:35:10;;;;;;;7.97;7.77;;;;;;;;;;5010157;28;20428;-60
2022/03/21 11:37:37;;;;;;;46.03;44.57;;;;;;;;;;5011213;28;20409;-59
2022/03/21 11:40:23;;;;;;;95.57;92.47;;;;;;;;;;5009612;28;20432;-59
2022/03/21 11:42:49;;;;;;;75.70;73.20;;;;;;;;;;5007753;28;20447;-61
2022/03/21 11:45:26;;;;;;;88.20;85.40;;;;;;;;;;5011393;28;20382;-59
2022/03/21 11:48:11;;;;;;;86.30;83.50;;;;;;;;;;5011726;28;20415;-61
2022/03/21 11:50:36;;;;;;;93.87;90.77;;;;;;;;;;5011157;28;20897;-59
2022/03/21 11:53:07;;;;;;;85.63;82.87;;;;;;;;;;5011345;28;20468;-60
2022/03/21 11:55:51;;;;;;;109.50;105.97;;;;;;;;;;5010050;28;20451;-61
2022/03/21 11:58:23;;;;;;;128.43;124.20;;;;;;;;;;5007201;28;20751;-60
2022/03/21 12:01:09;;;;;;;108.03;104.57;;;;;;;;;;5009493;28;20415;-56
2022/03/21 12:03:36;;;;;;;127.63;123.47;;;;;;;;;;5008891;28;20955;-60
2022/03/21 12:06:23;;;;;;;73.00;70.60;;;;;;;;;;5009313;28;20408;-60
2022/03/21 12:09:12;;;;;;;94.40;91.33;;;;;;;;;;5011319;28;20486;-58
2022/03/21 12:11:38;;;;;;;113.43;109.73;;;;;;;;;;5000867;28;20443;-59
2022/03/21 12:14:19;;;;;;;149.87;144.87;;;;;;;;;;5011232;28;20846;-59
2022/03/21 12:16:46;;;;;;;154.27;148.97;;;;;;;;;;5014850;28;20387;-58
2022/03/21 12:19:12;;;;;;;167.00;161.10;;;;;;;;;;5015028;28;20413;-60
2022/03/21 12:21:38;;;;;;;177.87;171.53;;;;;;;;;;5014808;28;20421;-59
2022/03/21 12:24:22;;;;;;;120.70;116.70;;;;;;;;;;5014906;28;20804;-61
2022/03/21 12:26:49;;;;;;;153.07;147.77;;;;;;;;;;5014941;28;20416;-61
2022/03/21 12:29:34;;;;;;;162.33;156.60;;;;;;;;;;5014766;28;20415;-60
2022/03/21 12:32:18;;;;;;;183.40;176.73;;;;;;;;;;5014392;28;20794;-62
2022/03/21 12:34:44;;;;;;;163.53;157.73;;;;;;;;;;5014743;28;20574;-62
2022/03/21 12:37:24;;;;;;;142.40;137.43;;;;;;;;;;5015006;28;20408;-61
2022/03/21 12:39:50;;;;;;;156.33;150.77;;;;;;;;;;5014532;28;20401;-60
2022/03/21 12:42:20;;;;;;;147.57;142.37;;;;;;;;;;5014286;28;20383;-61
2022/03/21 12:44:46;;;;;;;172.57;166.27;;;;;;;;;;5014543;28;20411;-59
2022/03/21 12:47:12;;;;;;;131.27;126.67;;;;;;;;;;5014461;28;20409;-61
2022/03/21 12:49:51;;;;;;;175.17;168.63;;;;;;;;;;5014389;28;20412;-61
2022/03/21 12:52:26;;;;;;;207.83;199.90;;;;;;;;;;5013954;28;20435;-60
2022/03/21 12:54:53;;;;;;;233.57;224.10;;;;;;;;;;5014375;28;20499;-60
2022/03/21 12:57:19;;;;;;;241.27;231.57;;;;;;;;;;5014540;28;20413;-63
2022/03/21 12:59:45;;;;;;;208.47;200.17;;;;;;;;;;5014190;28;20496;-62
2022/03/21 13:02:27;;;;;;;232.90;223.17;;;;;;;;;;5013848;28;20489;-62
2022/03/21 13:10:33;;;;;;;129.83;125.03;;;;;;;;;;5002929;28;20431;-61
2022/03/21 13:13:01;;;;;;;98.13;94.63;;;;;;;;;;5013826;28;20630;-62
2022/03/21 13:15:28;;;;;;;117.57;113.13;;;;;;;;;;5015445;28;20422;-58
2022/03/21 13:17:57;;;;;;;137.37;132.33;;;;;;;;;;5013888;28;20396;-60
2022/03/21 13:20:27;;;;;;;263.50;252.20;;;;;;;;;;5013582;28;20765;-60
2022/03/21 13:22:54;;;;;;;257.30;246.37;;;;;;;;;;5013741;28;20511;-61
2022/03/21 13:25:24;;;;;;;251.70;241.00;;;;;;;;;;5013831;28;20413;-62
2022/03/21 13:27:50;;;;;;;275.00;262.70;;;;;;;;;;5013670;28;20907;-61
2022/03/21 13:30:17;;;;;;;277.00;264.53;;;;;;;;;;5013444;28;20461;-60
2022/03/21 13:32:44;;;;;;;252.73;241.77;;;;;;;;;;5013314;28;20472;-57
2022/03/21 13:35:12;;;;;;;244.47;233.63;;;;;;;;;;5012496;28;20432;-58
2022/03/21 13:37:38;;;;;;;198.03;189.90;;;;;;;;;;5012124;28;20429;-60
2022/03/21 13:40:08;;;;;;;198.43;190.40;;;;;;;;;;5012577;28;20427;-57
2022/03/21 13:42:36;;;;;;;226.37;216.03;;;;;;;;;;5012409;28;20486;-60
2022/03/21 13:45:05;;;;;;;206.23;197.43;;;;;;;;;;5013225;28;20404;-61
2022/03/21 13:47:31;;;;;;;171.40;164.40;;;;;;;;;;5013317;28;20409;-60
2022/03/21 13:50:05;;;;;;;173.77;166.67;;;;;;;;;;5012260;28;20428;-60
2022/03/21 13:52:48;;;;;;;266.00;253.80;;;;;;;;;;5013251;28;20823;-60
2022/03/21 13:55:13;;;;;;;238.93;228.07;;;;;;;;;;5005747;28;20455;-61
2022/03/21 13:57:59;;;;;;;235.70;224.83;;;;;;;;;;5012551;28;20845;-59
2022/03/21 14:00:28;;;;;;;221.83;211.87;;;;;;;;;;5013003;28;20453;-59
2022/03/21 14:02:57;;;;;;;196.00;187.57;;;;;;;;;;5024247;28;20441;-61
2022/03/21 14:05:34;;;;;;;234.93;223.93;;;;;;;;;;5014520;28;20419;-60
2022/03/21 14:08:12;;;;;;;205.53;196.00;;;;;;;;;;5014991;28;20426;-61
2022/03/21 14:10:48;;;;;;;216.47;206.23;;;;;;;;;;5017115;28;20436;-61
2022/03/21 14:13:16;;;;;;;217.40;207.00;;;;;;;;;;5013237;28;20552;-59
2022/03/21 14:15:46;;;;;;;205.13;195.63;;;;;;;;;;4987588;28;20503;-61
2022/03/21 14:18:13;;;;;;;233.50;222.13;;;;;;;;;;4983626;28;20426;-61
2022/03/21 14:20:40;;;;;;;225.07;214.30;;;;;;;;;;5008717;28;20443;-60
2022/03/21 14:23:07;;;;;;;203.63;194.00;;;;;;;;;;4992761;28;20925;-61
2022/03/21 14:28:19;;;;;;;201.83;192.07;;;;;;;;;;4995874;28;20371;-61
2022/03/21 14:30:45;;;;;;;195.23;185.90;;;;;;;;;;5006311;28;20421;-61
2022/03/21 14:33:11;;;;;;;178.80;170.57;;;;;;;;;;4998425;28;20470;-61
2022/03/21 14:35:37;;;;;;;174.90;166.77;;;;;;;;;;5010943;28;20445;-61
2022/03/21 14:38:03;;;;;;;76.90;73.90;;;;;;;;;;4999933;28;20409;-60
2022/03/21 14:40:30;;;;;;;82.20;79.00;;;;;;;;;;5003014;28;20441;-61
2022/03/21 14:42:56;;;;;;;181.23;172.93;;;;;;;;;;5001868;28;20437;-60
2022/03/21 14:45:22;;;;;;;197.30;187.83;;;;;;;;;;5007708;28;20939;-59
2022/03/21 14:47:48;;;;;;;184.77;175.90;;;;;;;;;;4993923;28;20939;-61